Time,TemperatureF,DewpointF,PressureIn,WindDirection,WindDirectionDegrees,WindSpeedMPH,WindSpeedGustMPH,Humidity,HourlyPrecipIn,Conditions,Clouds,dailyrainin,SolarRadiationWatts/m^2,SoftwareType,DateUTC
2013-08-10 00:12:00,75.4,75.0,30.05,ESE,117,2.0,7.0,97,0.00,,,0.00,0,weatherlink.com 1.10,2013-08-10 04:12:00,
2013-08-10 00:27:00,75.3,74.0,30.05,ESE,115,1.0,7.0,96,0.00,,,0.00,0,weatherlink.com 1.10,2013-08-10 04:27:00,
2013-08-10 00:42:00,75.1,74.0,30.05,East,94,1.0,3.0,96,0.00,,,0.00,0,weatherlink.com 1.10,2013-08-10 04:42:00,
2013-08-10 00:57:00,75.1,74.0,30.05,ENE,77,2.0,4.0,96,0.00,,,0.00,0,weatherlink.com 1.10,2013-08-10 04:57:00,
2013-08-10 01:12:00,75.0,74.0,30.04,East,97,2.0,3.0,97,0.00,,,0.00,0,weatherlink.com 1.10,2013-08-10 05:12:00,
2013-08-10 01:27:00,74.8,74.0,30.05,ESE,104,0.0,3.0,97,0.00,,,0.00,0,weatherlink.com 1.10,2013-08-10 05:27:00,
2013-08-10 01:42:00,74.6,74.0,30.05,ESE,104,1.0,1.0,97,0.00,,,0.00,0,weatherlink.com 1.10,2013-08-10 05:42:00,
2013-08-10 01:57:00,74.9,74.0,30.05,East,98,2.0,4.0,97,0.00,,,0.00,0,weatherlink.com 1.10,2013-08-10 05:57:00,
2013-08-10 02:12:00,75.0,74.0,30.04,ENE,78,0.0,4.0,97,0.00,,,0.00,0,weatherlink.com 1.10,2013-08-10 06:12:00,
2013-08-10 02:28:00,75.1,74.0,30.04,ENE,76,2.0,6.0,97,0.00,,,0.00,0,weatherlink.com 1.10,2013-08-10 06:28:00,
2013-08-10 02:43:00,75.1,74.0,30.04,East,97,2.0,6.0,97,0.00,,,0.00,0,weatherlink.com 1.10,2013-08-10 06:43:00,
2013-08-10 02:58:00,74.9,74.0,30.04,ENE,63,1.0,4.0,97,0.00,,,0.00,0,weatherlink.com 1.10,2013-08-10 06:58:00,
2013-08-10 03:13:00,74.8,74.0,30.04,ESE,110,2.0,5.0,97,0.00,,,0.00,0,weatherlink.com 1.10,2013-08-10 07:13:00,
2013-08-10 03:28:00,74.7,74.0,30.04,East,84,1.0,4.0,97,0.00,,,0.00,0,weatherlink.com 1.10,2013-08-10 07:28:00,
2013-08-10 03:43:00,74.7,74.0,30.04,ESE,104,1.0,3.0,97,0.00,,,0.00,0,weatherlink.com 1.10,2013-08-10 07:43:00,
2013-08-10 03:58:00,74.7,74.0,30.04,ESE,104,2.0,3.0,97,0.01,,,0.01,0,weatherlink.com 1.10,2013-08-10 07:58:00,
2013-08-10 04:13:00,74.7,74.0,30.04,East,99,1.0,4.0,97,0.01,,,0.01,0,weatherlink.com 1.10,2013-08-10 08:13:00,
2013-08-10 04:28:00,74.6,74.0,30.04,East,94,1.0,3.0,97,0.01,,,0.01,0,weatherlink.com 1.10,2013-08-10 08:28:00,
2013-08-10 04:43:00,74.7,74.0,30.05,East,93,2.0,3.0,97,0.01,,,0.01,0,weatherlink.com 1.10,2013-08-10 08:43:00,
2013-08-10 04:58:00,74.5,74.0,30.04,East,94,1.0,2.0,97,0.00,,,0.01,0,weatherlink.com 1.10,2013-08-10 08:58:00,
2013-08-10 05:13:00,74.4,74.0,30.04,East,93,0.0,2.0,97,0.00,,,0.01,0,weatherlink.com 1.10,2013-08-10 09:13:00,
2013-08-10 05:28:00,74.0,73.0,30.04,East,94,0.0,1.0,97,0.00,,,0.01,0,weatherlink.com 1.10,2013-08-10 09:28:00,
2013-08-10 05:43:00,73.7,73.0,30.04,East,93,0.0,1.0,97,0.00,,,0.01,0,weatherlink.com 1.10,2013-08-10 09:43:00,
2013-08-10 05:58:00,73.4,73.0,30.05,East,93,0.0,1.0,97,0.00,,,0.01,0,weatherlink.com 1.10,2013-08-10 09:58:00,
2013-08-10 06:13:00,73.1,73.0,30.05,East,94,0.0,1.0,98,0.00,,,0.01,0,weatherlink.com 1.10,2013-08-10 10:13:00,
2013-08-10 06:28:00,72.8,72.0,30.05,East,93,0.0,0.0,98,0.00,,,0.01,0,weatherlink.com 1.10,2013-08-10 10:28:00,
2013-08-10 06:43:00,72.9,72.0,30.04,East,93,0.0,1.0,98,0.00,,,0.01,0,weatherlink.com 1.10,2013-08-10 10:43:00,
2013-08-10 06:58:00,73.4,73.0,30.05,East,93,0.0,2.0,98,0.00,,,0.01,0,weatherlink.com 1.10,2013-08-10 10:58:00,
2013-08-10 07:13:00,73.7,73.0,30.05,East,93,1.0,2.0,98,0.00,,,0.01,11,weatherlink.com 1.10,2013-08-10 11:13:00,
2013-08-10 07:28:00,74.2,74.0,30.06,East,94,2.0,2.0,98,0.00,,,0.01,21,weatherlink.com 1.10,2013-08-10 11:28:00,
2013-08-10 07:43:00,75.0,74.0,30.06,East,99,3.0,6.0,98,0.00,,,0.01,88,weatherlink.com 1.10,2013-08-10 11:43:00,
2013-08-10 07:58:00,76.1,75.0,30.07,ESE,117,1.0,4.0,97,0.00,,,0.01,123,weatherlink.com 1.10,2013-08-10 11:58:00,
2013-08-10 08:13:00,77.3,76.0,30.07,ESE,117,3.0,6.0,96,0.00,,,0.01,163,weatherlink.com 1.10,2013-08-10 12:13:00,
2013-08-10 08:28:00,78.5,77.0,30.08,ESE,103,1.0,8.0,95,0.00,,,0.01,193,weatherlink.com 1.10,2013-08-10 12:28:00,
2013-08-10 08:43:00,78.9,77.0,30.08,NE,51,4.0,10.0,94,0.00,,,0.01,227,weatherlink.com 1.10,2013-08-10 12:43:00,
2013-08-10 08:58:00,80.0,77.0,30.09,SE,141,5.0,9.0,91,0.00,,,0.01,292,weatherlink.com 1.10,2013-08-10 12:58:00,
2013-08-10 09:13:00,81.1,78.0,30.08,East,87,3.0,8.0,89,0.00,,,0.01,323,weatherlink.com 1.10,2013-08-10 13:13:00,
2013-08-10 09:28:00,81.6,77.0,30.08,ESE,111,4.0,9.0,87,0.00,,,0.01,381,weatherlink.com 1.10,2013-08-10 13:28:00,
2013-08-10 09:43:00,82.3,77.0,30.08,East,98,4.0,12.0,85,0.00,,,0.01,455,weatherlink.com 1.10,2013-08-10 13:43:00,
2013-08-10 09:59:00,83.4,78.0,30.08,East,84,5.0,12.0,83,0.00,,,0.01,548,weatherlink.com 1.10,2013-08-10 13:59:00,
2013-08-10 10:14:00,83.8,77.0,30.09,ESE,117,6.0,11.0,81,0.00,,,0.01,619,weatherlink.com 1.10,2013-08-10 14:14:00,
2013-08-10 10:29:00,83.9,78.0,30.09,ESE,121,2.0,11.0,81,0.00,,,0.01,404,weatherlink.com 1.10,2013-08-10 14:29:00,
2013-08-10 10:44:00,85.1,78.0,30.10,East,98,8.0,11.0,79,0.00,,,0.01,603,weatherlink.com 1.10,2013-08-10 14:44:00,
2013-08-10 10:59:00,86.6,79.0,30.10,ESE,113,6.0,11.0,78,0.00,,,0.01,722,weatherlink.com 1.10,2013-08-10 14:59:00,
2013-08-10 11:14:00,87.4,79.0,30.11,SE,132,8.0,10.0,76,0.00,,,0.01,747,weatherlink.com 1.10,2013-08-10 15:14:00,
2013-08-10 11:29:00,88.2,78.0,30.10,SE,137,3.0,10.0,72,0.00,,,0.01,779,weatherlink.com 1.10,2013-08-10 15:29:00,
2013-08-10 11:44:00,88.3,77.0,30.10,South,175,7.0,10.0,70,0.00,,,0.01,814,weatherlink.com 1.10,2013-08-10 15:44:00,
2013-08-10 11:59:00,89.2,78.0,30.10,SE,145,3.0,9.0,70,0.00,,,0.01,858,weatherlink.com 1.10,2013-08-10 15:59:00,
2013-08-10 12:14:00,89.9,78.0,30.10,East,99,4.0,9.0,67,0.00,,,0.01,893,weatherlink.com 1.10,2013-08-10 16:14:00,
2013-08-10 12:29:00,89.7,77.0,30.10,ENE,63,3.0,9.0,66,0.00,,,0.01,937,weatherlink.com 1.10,2013-08-10 16:29:00,
2013-08-10 12:44:00,90.4,78.0,30.10,SSE,158,2.0,10.0,67,0.00,,,0.01,962,weatherlink.com 1.10,2013-08-10 16:44:00,
2013-08-10 12:59:00,89.7,77.0,30.10,SE,130,2.0,8.0,67,0.00,,,0.01,1071,weatherlink.com 1.10,2013-08-10 16:59:00,
2013-08-10 13:14:00,90.3,77.0,30.10,SE,127,5.0,12.0,64,0.00,,,0.01,1086,weatherlink.com 1.10,2013-08-10 17:14:00,
2013-08-10 13:29:00,91.8,77.0,30.10,SE,138,2.0,8.0,62,0.00,,,0.01,1020,weatherlink.com 1.10,2013-08-10 17:29:00,
2013-08-10 13:44:00,93.2,78.0,30.10,SSW,212,8.0,10.0,62,0.00,,,0.01,1053,weatherlink.com 1.10,2013-08-10 17:44:00,
2013-08-10 13:59:00,90.5,76.0,30.09,SSW,195,4.0,12.0,63,0.00,,,0.01,218,weatherlink.com 1.10,2013-08-10 17:59:00,
2013-08-10 14:14:00,88.5,77.0,30.09,WSW,238,5.0,8.0,68,0.00,,,0.01,243,weatherlink.com 1.10,2013-08-10 18:14:00,
2013-08-10 14:29:00,88.8,80.0,30.07,SSE,157,3.0,9.0,74,0.00,,,0.01,1034,weatherlink.com 1.10,2013-08-10 18:29:00,
2013-08-10 14:44:00,87.8,77.0,30.06,SW,223,0.0,3.0,70,0.00,,,0.01,274,weatherlink.com 1.10,2013-08-10 18:44:00,
2013-08-10 14:59:00,90.1,77.0,30.05,East,84,2.0,7.0,66,0.00,,,0.01,940,weatherlink.com 1.10,2013-08-10 18:59:00,
2013-08-10 15:14:00,92.3,80.0,30.04,WNW,290,0.0,3.0,67,0.00,,,0.01,911,weatherlink.com 1.10,2013-08-10 19:14:00,
2013-08-10 15:29:00,92.5,77.0,30.04,WNW,294,0.0,4.0,61,0.00,,,0.01,287,weatherlink.com 1.10,2013-08-10 19:29:00,
2013-08-10 15:45:00,94.3,79.0,30.04,SSW,209,2.0,6.0,62,0.00,,,0.01,984,weatherlink.com 1.10,2013-08-10 19:45:00,
2013-08-10 16:00:00,94.2,80.0,30.03,South,171,6.0,6.0,64,0.00,,,0.01,835,weatherlink.com 1.10,2013-08-10 20:00:00,
2013-08-10 16:15:00,94.4,79.0,30.03,SSE,163,1.0,3.0,61,0.00,,,0.01,889,weatherlink.com 1.10,2013-08-10 20:15:00,
2013-08-10 16:30:00,95.1,81.0,30.02,SW,223,2.0,10.0,64,0.00,,,0.01,817,weatherlink.com 1.10,2013-08-10 20:30:00,
2013-08-10 16:45:00,95.7,80.0,30.03,SSW,211,5.0,8.0,61,0.00,,,0.01,823,weatherlink.com 1.10,2013-08-10 20:45:00,
2013-08-10 17:00:00,92.8,79.0,30.02,SE,126,0.0,7.0,64,0.00,,,0.01,733,weatherlink.com 1.10,2013-08-10 21:00:00,
2013-08-10 17:15:00,94.8,80.0,30.02,SW,229,5.0,5.0,62,0.00,,,0.01,661,weatherlink.com 1.10,2013-08-10 21:15:00,
2013-08-10 17:30:00,92.1,79.0,30.02,South,185,2.0,7.0,66,0.00,,,0.01,301,weatherlink.com 1.10,2013-08-10 21:30:00,
2013-08-10 17:45:00,91.0,76.0,30.02,ESE,121,4.0,11.0,62,0.00,,,0.01,139,weatherlink.com 1.10,2013-08-10 21:45:00,
2013-08-10 18:00:00,89.9,78.0,30.02,SSW,208,4.0,9.0,68,0.00,,,0.01,79,weatherlink.com 1.10,2013-08-10 22:00:00,
2013-08-10 18:15:00,89.0,79.0,30.02,SSW,209,2.0,5.0,72,0.00,,,0.01,359,weatherlink.com 1.10,2013-08-10 22:15:00,
2013-08-10 18:30:00,88.9,78.0,30.02,SSW,212,1.0,3.0,71,0.00,,,0.01,160,weatherlink.com 1.10,2013-08-10 22:30:00,
2013-08-10 18:45:00,87.8,79.0,30.03,SW,223,2.0,4.0,74,0.00,,,0.01,84,weatherlink.com 1.10,2013-08-10 22:45:00,
2013-08-10 19:00:00,87.2,78.0,30.02,West,261,1.0,3.0,73,0.00,,,0.01,81,weatherlink.com 1.10,2013-08-10 23:00:00,
2013-08-10 19:15:00,86.8,78.0,30.03,West,274,2.0,6.0,75,0.00,,,0.01,65,weatherlink.com 1.10,2013-08-10 23:15:00,
2013-08-10 19:30:00,86.2,78.0,30.03,West,271,0.0,6.0,76,0.00,,,0.01,49,weatherlink.com 1.10,2013-08-10 23:30:00,
2013-08-10 19:45:00,85.8,78.0,30.03,WNW,285,1.0,4.0,77,0.00,,,0.01,28,weatherlink.com 1.10,2013-08-10 23:45:00,
2013-08-10 20:00:00,85.2,78.0,30.04,West,276,0.0,4.0,78,0.00,,,0.01,16,weatherlink.com 1.10,2013-08-11 00:00:00,
2013-08-10 20:15:00,84.6,78.0,30.04,WNW,290,3.0,3.0,80,0.00,,,0.01,0,weatherlink.com 1.10,2013-08-11 00:15:00,
2013-08-10 20:30:00,84.1,78.0,30.04,WNW,287,0.0,2.0,81,0.00,,,0.01,0,weatherlink.com 1.10,2013-08-11 00:30:00,
2013-08-10 20:45:00,83.5,78.0,30.05,WNW,285,0.0,3.0,82,0.00,,,0.01,0,weatherlink.com 1.10,2013-08-11 00:45:00,
2013-08-10 21:00:00,83.4,78.0,30.05,WNW,285,1.0,3.0,84,0.00,,,0.01,0,weatherlink.com 1.10,2013-08-11 01:00:00,
2013-08-10 21:15:00,83.1,78.0,30.06,WNW,286,0.0,3.0,85,0.00,,,0.01,0,weatherlink.com 1.10,2013-08-11 01:15:00,
2013-08-10 21:30:00,83.0,78.0,30.06,WNW,296,0.0,3.0,85,0.00,,,0.01,0,weatherlink.com 1.10,2013-08-11 01:30:00,
2013-08-10 21:45:00,82.7,78.0,30.06,WNW,296,0.0,1.0,85,0.00,,,0.01,0,weatherlink.com 1.10,2013-08-11 01:45:00,
2013-08-10 22:00:00,82.5,78.0,30.07,WNW,296,0.0,2.0,85,0.00,,,0.01,0,weatherlink.com 1.10,2013-08-11 02:00:00,
2013-08-10 22:15:00,81.9,78.0,30.07,WNW,296,0.0,1.0,87,0.00,,,0.01,0,weatherlink.com 1.10,2013-08-11 02:15:00,
2013-08-10 22:30:00,82.0,78.0,30.07,WNW,296,0.0,4.0,86,0.00,,,0.01,0,weatherlink.com 1.10,2013-08-11 02:30:00,
2013-08-10 22:45:00,82.1,77.0,30.08,WNW,297,1.0,1.0,85,0.00,,,0.01,0,weatherlink.com 1.10,2013-08-11 02:45:00,
2013-08-10 23:00:00,82.0,77.0,30.09,NW,310,0.0,3.0,85,0.00,,,0.01,0,weatherlink.com 1.10,2013-08-11 03:00:00,
2013-08-10 23:15:00,82.0,77.0,30.09,NW,312,0.0,3.0,84,0.00,,,0.01,0,weatherlink.com 1.10,2013-08-11 03:15:00,
2013-08-10 23:30:00,81.7,77.0,30.09,NW,312,0.0,1.0,85,0.00,,,0.01,0,weatherlink.com 1.10,2013-08-11 03:30:00,
2013-08-10 23:45:00,82.0,78.0,30.10,ENE,72,3.0,4.0,86,0.00,,,0.01,0,weatherlink.com 1.10,2013-08-11 03:45:00,